createdAt,value
2019-03-08T00:01:41.610Z,0.60
2019-03-08T00:04:11.409Z,0.70
2019-03-08T00:06:38.993Z,0.90
2019-03-08T00:09:09.042Z,0.90
2019-03-08T00:11:37.710Z,1.40
2019-03-08T00:14:05.424Z,0.97
2019-03-08T00:16:32.965Z,1.10
2019-03-08T00:19:00.901Z,0.70
2019-03-08T00:21:28.434Z,0.80
2019-03-08T00:23:56.078Z,0.60
2019-03-08T00:26:23.663Z,1.03
2019-03-08T00:28:51.158Z,0.77
2019-03-08T00:31:18.744Z,0.60
2019-03-08T00:33:46.609Z,0.80
2019-03-08T00:36:14.406Z,0.60
2019-03-08T00:38:42.092Z,0.90
2019-03-08T00:41:09.681Z,0.90
2019-03-08T00:43:37.717Z,0.93
2019-03-08T00:46:05.572Z,0.83
2019-03-08T00:48:33.425Z,0.70
2019-03-08T00:51:01.410Z,0.67
2019-03-08T00:53:28.916Z,0.70
2019-03-08T00:55:56.613Z,0.53
2019-03-08T00:58:24.254Z,0.80
2019-03-08T01:00:51.919Z,0.57
2019-03-08T01:03:19.450Z,0.80
2019-03-08T01:05:47.012Z,0.50
2019-03-08T01:08:14.606Z,0.70
2019-03-08T01:10:42.098Z,0.50
2019-03-08T01:13:09.562Z,0.90
2019-03-08T01:15:37.096Z,0.90
2019-03-08T01:18:04.581Z,0.53
2019-03-08T01:20:32.060Z,0.60
2019-03-08T01:22:59.972Z,0.77
2019-03-08T01:25:27.789Z,0.60
2019-03-08T01:28:30.052Z,1.20
2019-03-08T01:30:57.646Z,0.40
2019-03-08T01:33:25.695Z,0.60
2019-03-08T01:35:54.011Z,1.10
2019-03-08T01:38:21.612Z,0.60
2019-03-08T01:40:49.187Z,0.60
2019-03-08T01:43:17.145Z,0.70
2019-03-08T01:45:45.066Z,0.40
2019-03-08T01:48:12.668Z,0.90
2019-03-08T01:50:41.258Z,0.93
2019-03-08T01:55:54.534Z,0.50
2019-03-08T01:58:22.209Z,0.57
2019-03-08T02:01:07.226Z,0.60
2019-03-08T02:03:37.986Z,0.80
2019-03-08T02:06:19.527Z,0.57
2019-03-08T02:08:47.545Z,0.63
2019-03-08T02:11:15.209Z,0.50
2019-03-08T02:13:42.750Z,0.50
2019-03-08T02:16:10.300Z,0.63
2019-03-08T02:18:38.346Z,0.93
2019-03-08T02:21:07.278Z,0.50
2019-03-08T02:23:35.311Z,1.03
2019-03-08T02:26:03.000Z,0.80
2019-03-08T02:28:30.716Z,0.97
2019-03-08T02:30:58.181Z,0.60
2019-03-08T02:33:25.694Z,0.77
2019-03-08T02:35:53.529Z,0.47
2019-03-08T02:38:20.983Z,0.67
2019-03-08T02:40:48.630Z,0.70
2019-03-08T02:43:17.288Z,0.77
2019-03-08T02:45:44.817Z,0.50
2019-03-08T02:48:12.410Z,0.70
2019-03-08T02:50:39.987Z,0.50
2019-03-08T02:53:07.529Z,0.53
2019-03-08T02:55:35.249Z,0.63
2019-03-08T02:58:03.050Z,0.50
2019-03-08T03:00:36.515Z,0.60
2019-03-08T03:03:03.978Z,0.40
2019-03-08T03:05:31.613Z,0.90
2019-03-08T03:07:59.181Z,0.53
2019-03-08T03:10:26.775Z,0.37
2019-03-08T03:12:54.349Z,0.40
2019-03-08T03:15:22.039Z,0.50
2019-03-08T03:17:49.479Z,0.40
2019-03-08T03:20:17.297Z,0.90
2019-03-08T03:22:44.893Z,0.37
2019-03-08T03:25:14.154Z,0.40
2019-03-08T03:27:41.648Z,0.57
2019-03-08T03:30:09.422Z,0.40
2019-03-08T03:32:37.180Z,0.30
2019-03-08T03:35:05.154Z,0.43
2019-03-08T03:37:32.654Z,0.40
2019-03-08T03:40:00.351Z,0.57
2019-03-08T03:42:27.990Z,0.60
2019-03-08T03:44:55.593Z,0.40
2019-03-08T03:47:23.088Z,0.40
2019-03-08T03:49:50.530Z,0.40
2019-03-08T03:52:18.367Z,0.73
2019-03-08T03:54:45.923Z,0.60
2019-03-08T03:57:13.814Z,0.40
2019-03-08T03:59:41.358Z,0.60
2019-03-08T04:02:08.832Z,1.13
2019-03-08T04:04:36.329Z,0.93
2019-03-08T04:07:03.870Z,0.60
2019-03-08T04:09:31.532Z,0.70
2019-03-08T04:11:59.377Z,0.60
2019-03-08T04:14:26.843Z,1.10
2019-03-08T04:16:54.367Z,1.10
2019-03-08T04:19:22.390Z,0.53
2019-03-08T04:21:49.933Z,0.50
2019-03-08T04:24:17.406Z,0.30
2019-03-08T04:26:45.164Z,0.30
2019-03-08T04:29:13.019Z,0.30
2019-03-08T04:31:41.692Z,0.40
2019-03-08T04:34:09.339Z,0.30
2019-03-08T04:36:36.831Z,0.40
2019-03-08T04:39:06.908Z,0.43
2019-03-08T04:41:34.997Z,0.40
2019-03-08T04:44:02.869Z,0.57
2019-03-08T04:46:30.360Z,0.80
2019-03-08T04:48:57.821Z,0.53
2019-03-08T04:51:25.294Z,0.70
2019-03-08T04:53:52.861Z,1.20
2019-03-08T04:56:20.355Z,0.37
2019-03-08T04:58:47.978Z,0.53
2019-03-08T05:01:15.958Z,0.50
2019-03-08T05:03:43.537Z,0.60
2019-03-08T05:06:11.108Z,0.40
2019-03-08T05:08:38.678Z,0.50
2019-03-08T05:11:06.108Z,0.43
2019-03-08T05:13:33.674Z,0.57
2019-03-08T05:16:01.184Z,0.30
2019-03-08T05:18:28.657Z,0.50
2019-03-08T05:20:57.261Z,0.40
2019-03-08T05:23:24.774Z,0.47
2019-03-08T05:25:52.299Z,0.80
2019-03-08T05:28:21.032Z,0.47
2019-03-08T05:30:49.055Z,0.40
2019-03-08T05:33:16.676Z,0.40
2019-03-08T05:35:44.294Z,0.50
2019-03-08T05:38:17.780Z,0.40
2019-03-08T05:40:45.394Z,0.37
2019-03-08T05:43:13.089Z,0.83
2019-03-08T05:45:40.595Z,0.60
2019-03-08T05:48:08.558Z,0.40
2019-03-08T05:50:36.088Z,0.40
2019-03-08T05:53:03.556Z,0.47
2019-03-08T05:55:32.264Z,0.40
2019-03-08T05:57:59.748Z,0.33
2019-03-08T06:00:32.531Z,0.60
2019-03-08T06:02:58.649Z,0.40
2019-03-08T06:05:26.413Z,0.40
2019-03-08T06:07:53.915Z,0.47
2019-03-08T06:10:28.436Z,0.77
2019-03-08T06:12:55.946Z,0.57
2019-03-08T06:15:23.599Z,0.47
2019-03-08T06:17:51.177Z,0.70
2019-03-08T06:20:18.749Z,0.80
2019-03-08T06:22:46.388Z,0.60
2019-03-08T06:25:14.039Z,0.60
2019-03-08T06:27:41.599Z,0.50
2019-03-08T06:30:09.293Z,0.50
2019-03-08T06:32:36.915Z,0.53
2019-03-08T06:35:04.730Z,0.60
2019-03-08T06:37:32.253Z,0.90
2019-03-08T06:39:59.740Z,0.40
2019-03-08T06:42:27.453Z,0.83
2019-03-08T06:44:55.033Z,0.80
2019-03-08T06:47:22.545Z,1.43
2019-03-08T06:49:50.158Z,0.40
2019-03-08T06:52:17.844Z,1.30
2019-03-08T06:54:45.477Z,0.70
2019-03-08T06:57:13.223Z,0.80
2019-03-08T06:59:54.050Z,0.70
2019-03-08T07:02:22.213Z,0.53
2019-03-08T07:04:49.916Z,1.10
2019-03-08T07:07:17.445Z,0.57
2019-03-08T07:09:45.033Z,0.80
2019-03-08T07:12:12.843Z,0.70
2019-03-08T07:14:40.353Z,0.80
2019-03-08T07:17:08.067Z,0.50
2019-03-08T07:19:40.956Z,0.60
2019-03-08T07:22:12.282Z,0.53
2019-03-08T07:25:07.821Z,0.67
2019-03-08T07:28:01.282Z,0.60
2019-03-08T07:30:46.263Z,1.03
2019-03-08T07:33:27.148Z,0.97
2019-03-08T07:36:13.844Z,1.00
2019-03-08T07:38:52.559Z,1.30
2019-03-08T07:41:45.550Z,0.83
2019-03-08T07:44:22.085Z,0.50
2019-03-08T07:47:12.261Z,1.20
2019-03-08T07:49:58.108Z,1.10
2019-03-08T07:52:43.708Z,0.70
2019-03-08T07:55:40.291Z,0.80
2019-03-08T07:58:27.629Z,0.63
2019-03-08T08:01:03.504Z,0.73
2019-03-08T08:03:46.556Z,0.57
2019-03-08T08:06:32.176Z,0.90
2019-03-08T08:09:17.961Z,0.87
2019-03-08T08:11:56.276Z,0.70
2019-03-08T08:14:39.668Z,0.93
2019-03-08T08:17:22.995Z,0.90
2019-03-08T08:20:16.135Z,0.80
2019-03-08T08:23:12.389Z,0.73
2019-03-08T08:25:51.578Z,0.60
2019-03-08T08:28:34.656Z,1.13
2019-03-08T08:31:30.695Z,0.67
2019-03-08T08:34:21.968Z,1.03
2019-03-08T08:37:08.490Z,0.70
2019-03-08T08:39:54.277Z,0.70
2019-03-08T08:42:39.998Z,0.63
2019-03-08T08:45:15.783Z,0.70
2019-03-08T08:48:18.162Z,1.10
2019-03-08T08:51:11.870Z,0.60
2019-03-08T08:53:56.737Z,1.00
2019-03-08T08:56:42.366Z,0.60
2019-03-08T08:59:20.423Z,1.00
2019-03-08T09:02:07.554Z,0.70
2019-03-08T09:04:54.631Z,0.80
2019-03-08T09:07:37.334Z,1.40
2019-03-08T09:10:10.184Z,0.60
2019-03-08T09:13:03.303Z,0.70
2019-03-08T09:15:35.672Z,0.70
2019-03-08T09:18:28.848Z,0.80
2019-03-08T09:21:22.286Z,0.80
2019-03-08T09:24:18.140Z,0.87
2019-03-08T09:27:10.988Z,1.13
2019-03-08T09:29:53.734Z,0.90
2019-03-08T09:32:30.552Z,0.93
2019-03-08T09:35:20.473Z,5.07
2019-03-08T09:38:02.559Z,1.47
2019-03-08T09:40:53.406Z,0.93
2019-03-08T09:43:32.919Z,1.30
2019-03-08T09:46:20.033Z,0.80
2019-03-08T09:48:53.767Z,1.00
2019-03-08T09:51:45.593Z,0.80
2019-03-08T09:54:32.790Z,0.87
2019-03-08T09:57:22.533Z,0.67
2019-03-08T10:00:12.642Z,1.00
2019-03-08T10:03:05.485Z,1.27
2019-03-08T10:05:43.869Z,0.50
2019-03-08T10:08:20.292Z,0.90
2019-03-08T10:11:16.287Z,0.70
2019-03-08T10:13:49.875Z,0.90
2019-03-08T10:16:35.691Z,0.90
2019-03-08T10:19:34.986Z,0.80
2019-03-08T10:22:20.459Z,1.10
2019-03-08T10:25:05.950Z,2.03
2019-03-08T10:28:04.986Z,0.70
2019-03-08T10:30:38.590Z,0.83
2019-03-08T10:33:30.513Z,0.97
2019-03-08T10:36:35.967Z,0.93
2019-03-08T10:39:26.632Z,0.77
2019-03-08T10:42:10.218Z,0.87
2019-03-08T10:44:43.945Z,0.80
2019-03-08T10:47:28.452Z,0.83
2019-03-08T10:50:21.377Z,0.60
2019-03-08T10:52:58.608Z,0.50
2019-03-08T10:55:38.855Z,0.70
2019-03-08T10:58:25.104Z,1.37
2019-03-08T11:01:17.816Z,0.70
2019-03-08T11:04:19.987Z,0.97
2019-03-08T11:06:58.281Z,0.43
2019-03-08T11:09:48.190Z,0.40
2019-03-08T11:12:35.405Z,0.87
2019-03-08T11:15:33.477Z,0.80
2019-03-08T11:18:16.528Z,0.80
2019-03-08T11:21:02.495Z,0.80
2019-03-08T11:23:38.150Z,1.10
2019-03-08T11:26:24.024Z,0.60
2019-03-08T11:29:14.041Z,0.80
2019-03-08T11:31:53.949Z,0.60
2019-03-08T11:34:30.330Z,1.00
2019-03-08T11:37:09.922Z,0.67
2019-03-08T11:39:48.693Z,1.20
2019-03-08T11:42:31.453Z,0.90
2019-03-08T11:45:36.927Z,0.87
2019-03-08T11:48:38.427Z,0.60
2019-03-08T11:51:25.444Z,1.30
2019-03-08T11:53:59.743Z,0.80
2019-03-08T11:56:55.930Z,0.80
2019-03-08T11:59:37.756Z,0.90
2019-03-08T12:02:27.609Z,0.80
2019-03-08T12:05:14.650Z,0.83
2019-03-08T12:08:04.992Z,1.07
2019-03-08T12:10:50.604Z,0.63
2019-03-08T12:13:28.413Z,0.70
2019-03-08T12:16:14.745Z,0.67
2019-03-08T12:19:04.744Z,0.73
2019-03-08T12:21:44.797Z,0.90
2019-03-08T12:24:34.785Z,0.80
2019-03-08T12:27:18.099Z,0.77
2019-03-08T12:30:06.936Z,0.53
2019-03-08T12:33:00.234Z,0.47
2019-03-08T12:35:34.887Z,1.30
2019-03-08T12:38:33.531Z,0.80
2019-03-08T12:41:09.078Z,0.90
2019-03-08T12:43:46.135Z,0.67
2019-03-08T12:46:26.094Z,1.20
2019-03-08T12:49:09.348Z,0.73
2019-03-08T12:51:47.829Z,1.20
2019-03-08T12:54:37.745Z,1.07
2019-03-08T12:57:24.805Z,0.97
2019-03-08T13:00:06.103Z,0.60
2019-03-08T13:02:51.849Z,0.87
2019-03-08T13:05:41.877Z,0.70
2019-03-08T13:08:35.113Z,0.70
2019-03-08T13:11:02.600Z,0.80
2019-03-08T13:13:30.082Z,1.10
2019-03-08T13:15:57.551Z,0.70
2019-03-08T13:18:25.294Z,0.90
2019-03-08T13:20:53.007Z,1.10
2019-03-08T13:23:21.655Z,0.53
2019-03-08T13:25:49.117Z,1.07
2019-03-08T13:28:16.749Z,0.90
2019-03-08T13:30:44.259Z,0.70
2019-03-08T13:33:11.822Z,0.80
2019-03-08T13:35:39.510Z,1.03
2019-03-08T13:38:07.173Z,0.50
2019-03-08T13:40:34.722Z,0.70
2019-03-08T13:43:02.214Z,0.77
2019-03-08T13:45:30.989Z,1.00
2019-03-08T13:47:58.583Z,1.13
2019-03-08T13:50:26.292Z,0.80
2019-03-08T13:52:54.014Z,1.07
2019-03-08T13:55:21.569Z,1.40
2019-03-08T13:57:49.247Z,0.90
2019-03-08T14:00:17.112Z,1.10
2019-03-08T14:02:44.757Z,1.00
2019-03-08T14:05:12.595Z,1.20
2019-03-08T14:07:40.191Z,0.70
2019-03-08T14:10:10.422Z,1.20
2019-03-08T14:12:38.148Z,0.90
2019-03-08T14:15:06.981Z,0.80
2019-03-08T14:17:34.588Z,0.73
2019-03-08T14:20:02.310Z,1.03
2019-03-08T14:22:30.725Z,0.50
2019-03-08T14:24:59.492Z,0.53
2019-03-08T14:27:27.264Z,0.70
2019-03-08T14:29:55.178Z,0.80
2019-03-08T14:32:25.273Z,0.60
2019-03-08T14:34:53.721Z,0.63
2019-03-08T14:37:22.639Z,0.80
2019-03-08T14:39:50.251Z,1.40
2019-03-08T14:42:41.587Z,2.03
2019-03-08T14:45:35.532Z,0.97
2019-03-08T14:48:05.973Z,1.13
2019-03-08T14:50:35.529Z,1.53
2019-03-08T14:53:03.734Z,1.20
2019-03-08T14:55:31.721Z,1.10
2019-03-08T14:58:00.484Z,0.90
2019-03-08T15:00:29.159Z,1.33
2019-03-08T15:02:57.638Z,1.20
2019-03-08T15:05:25.244Z,1.40
2019-03-08T15:07:52.936Z,1.03
2019-03-08T15:10:20.586Z,1.20
2019-03-08T15:12:49.306Z,1.03
2019-03-08T15:15:17.376Z,0.80
2019-03-08T15:17:45.341Z,0.97
2019-03-08T15:20:15.566Z,1.47
2019-03-08T15:22:44.509Z,1.10
2019-03-08T15:25:14.074Z,0.83
2019-03-08T15:27:43.112Z,2.30
2019-03-08T15:30:12.591Z,1.03
2019-03-08T15:32:40.189Z,1.10
2019-03-08T15:35:09.108Z,1.57
2019-03-08T15:37:43.928Z,1.00
2019-03-08T15:40:08.904Z,0.90
2019-03-08T15:42:37.943Z,0.60
2019-03-08T15:45:07.155Z,1.00
2019-03-08T15:47:36.140Z,1.00
2019-03-08T15:50:08.303Z,0.80
2019-03-08T15:52:35.314Z,1.00
2019-03-08T15:55:03.666Z,0.90
2019-03-08T15:57:32.460Z,1.03
2019-03-08T16:00:00.344Z,0.80
2019-03-08T16:02:28.383Z,1.07
2019-03-08T16:04:59.313Z,0.80
2019-03-08T16:07:27.293Z,1.00
2019-03-08T16:09:55.126Z,1.00
2019-03-08T16:12:22.708Z,1.07
2019-03-08T16:14:51.324Z,0.77
2019-03-08T16:17:18.983Z,1.20
2019-03-08T16:19:46.478Z,0.90
2019-03-08T16:22:14.084Z,0.80
2019-03-08T16:24:41.591Z,0.70
2019-03-08T16:27:09.257Z,0.80
2019-03-08T16:29:36.806Z,0.80
2019-03-08T16:32:24.825Z,16.30
2019-03-08T16:34:52.293Z,1.10
2019-03-08T16:37:24.664Z,0.70
2019-03-08T16:40:01.612Z,0.83
2019-03-08T16:42:47.306Z,0.63
2019-03-08T16:45:37.159Z,0.60
2019-03-08T16:48:12.267Z,1.37
2019-03-08T16:51:17.521Z,0.90
2019-03-08T16:54:02.430Z,1.10
2019-03-08T16:57:05.762Z,0.50
2019-03-08T16:59:49.766Z,7.13
2019-03-08T17:02:55.471Z,2.57
2019-03-08T17:05:41.000Z,0.80
2019-03-08T17:08:27.927Z,0.93
2019-03-08T17:11:15.064Z,1.27
2019-03-08T17:13:49.476Z,1.60
2019-03-08T17:16:35.224Z,1.53
2019-03-08T17:19:20.725Z,1.23
2019-03-08T17:22:11.136Z,1.00
2019-03-08T17:25:09.994Z,1.17
2019-03-08T17:27:45.384Z,1.10
2019-03-08T17:30:42.862Z,1.07
2019-03-08T17:33:22.269Z,1.10
2019-03-08T17:36:08.202Z,1.30
2019-03-08T17:39:01.764Z,1.30
2019-03-08T17:41:49.491Z,1.53
2019-03-08T17:44:46.311Z,1.80
2019-03-08T17:47:33.417Z,1.80
2019-03-08T17:50:19.034Z,3.63
2019-03-08T17:53:14.507Z,3.07
2019-03-08T17:56:00.867Z,3.10
2019-03-08T17:58:48.990Z,4.50
2019-03-08T18:01:36.302Z,4.87
2019-03-08T18:04:14.188Z,3.27
2019-03-08T18:07:01.260Z,2.80
2019-03-08T18:09:48.367Z,3.70
2019-03-08T18:12:26.871Z,2.93
2019-03-08T18:15:20.252Z,2.83
2019-03-08T18:18:10.372Z,3.50
2019-03-08T18:20:51.746Z,3.20
2019-03-08T18:23:50.944Z,3.57
2019-03-08T18:26:56.495Z,4.40
2019-03-08T18:29:55.714Z,3.70
2019-03-08T18:32:35.415Z,3.80
2019-03-08T18:35:34.432Z,3.93
2019-03-08T18:38:23.051Z,3.93
2019-03-08T18:41:22.441Z,4.30
2019-03-08T18:44:27.738Z,9.00
2019-03-08T18:47:24.097Z,9.43
2019-03-08T18:50:09.959Z,7.47
2019-03-08T18:53:06.374Z,4.60
2019-03-08T18:56:12.064Z,7.23
2019-03-08T18:58:46.208Z,7.80
2019-03-08T19:01:33.092Z,11.10
2019-03-08T19:04:06.457Z,8.00
2019-03-08T19:06:55.254Z,6.40
2019-03-08T19:09:34.698Z,6.30
2019-03-08T19:12:10.661Z,6.63
2019-03-08T19:14:48.120Z,8.23
2019-03-08T19:17:28.849Z,6.83
2019-03-08T19:20:09.135Z,6.93
2019-03-08T19:22:51.709Z,6.67
2019-03-08T19:25:35.962Z,6.30
2019-03-08T19:28:14.946Z,8.33
2019-03-08T19:30:55.083Z,7.30
2019-03-08T19:33:39.381Z,6.13
2019-03-08T19:36:26.397Z,5.60
2019-03-08T19:39:01.343Z,5.87
2019-03-08T19:41:39.960Z,5.93
2019-03-08T19:44:25.914Z,5.87
2019-03-08T19:47:11.665Z,4.77
2019-03-08T19:49:57.568Z,5.17
2019-03-08T19:52:59.783Z,5.43
2019-03-08T19:55:46.936Z,5.73
2019-03-08T19:58:38.532Z,6.23
2019-03-08T20:01:28.578Z,6.03
2019-03-08T20:04:15.969Z,6.43
2019-03-08T20:06:54.559Z,6.27
2019-03-08T20:09:47.600Z,4.43
2019-03-08T20:12:24.806Z,4.30
2019-03-08T20:15:30.577Z,4.63
2019-03-08T20:18:17.818Z,3.70
2019-03-08T20:21:06.451Z,3.90
2019-03-08T20:23:56.533Z,4.17
2019-03-08T20:26:41.915Z,3.33
2019-03-08T20:29:29.155Z,4.47
2019-03-08T20:32:10.297Z,4.30
2019-03-08T20:35:09.939Z,4.33
2019-03-08T20:37:53.790Z,4.13
2019-03-08T20:40:40.954Z,3.80
2019-03-08T20:43:13.156Z,3.77
2019-03-08T20:46:04.361Z,3.80
2019-03-08T20:48:32.085Z,3.23
2019-03-08T20:51:00.093Z,3.27
2019-03-08T20:53:27.763Z,7.10
2019-03-08T20:55:55.440Z,5.13
2019-03-08T20:58:23.088Z,4.83
2019-03-08T21:00:50.679Z,4.70
2019-03-08T21:03:18.501Z,3.20
2019-03-08T21:05:46.140Z,3.57
2019-03-08T21:08:14.058Z,2.60
2019-03-08T21:10:41.723Z,2.60
2019-03-08T21:13:09.559Z,3.10
2019-03-08T21:15:37.196Z,3.30
2019-03-08T21:18:05.011Z,2.90
2019-03-08T21:20:32.780Z,3.37
2019-03-08T21:23:00.630Z,3.33
2019-03-08T21:25:28.359Z,3.23
2019-03-08T21:27:56.313Z,2.40
2019-03-08T21:30:23.997Z,2.17
2019-03-08T21:32:51.601Z,2.40
2019-03-08T21:35:19.205Z,2.23
2019-03-08T21:37:48.080Z,2.87
2019-03-08T21:40:15.696Z,4.53
2019-03-08T21:42:43.351Z,2.70
2019-03-08T21:45:11.783Z,2.10
2019-03-08T21:47:39.901Z,2.10
2019-03-08T21:50:09.301Z,2.07
2019-03-08T21:52:37.207Z,1.90
2019-03-08T21:55:05.184Z,2.27
2019-03-08T21:57:32.934Z,2.00
2019-03-08T22:00:00.778Z,2.13
2019-03-08T22:02:28.763Z,2.57
2019-03-08T22:05:01.409Z,2.10
2019-03-08T22:07:30.009Z,2.67
2019-03-08T22:10:17.021Z,2.30
2019-03-08T22:12:44.798Z,1.83
2019-03-08T22:15:12.894Z,1.43
2019-03-08T22:17:40.548Z,2.83
2019-03-08T22:20:08.448Z,2.10
2019-03-08T22:22:36.193Z,1.70
2019-03-08T22:25:04.530Z,2.03
2019-03-08T22:27:34.121Z,1.53
2019-03-08T22:30:03.008Z,2.30
2019-03-08T22:32:31.462Z,1.97
2019-03-08T22:34:59.052Z,1.50
2019-03-08T22:37:27.348Z,2.67
2019-03-08T22:39:55.407Z,3.07
2019-03-08T22:42:23.865Z,2.60
2019-03-08T22:44:52.208Z,2.37
2019-03-08T22:47:20.164Z,2.30
2019-03-08T22:49:50.200Z,1.60
2019-03-08T22:52:18.504Z,1.50
2019-03-08T22:54:46.094Z,1.73
2019-03-08T22:57:13.744Z,2.27
2019-03-08T22:59:41.327Z,1.77
2019-03-08T23:02:09.395Z,1.60
2019-03-08T23:04:37.124Z,1.73
2019-03-08T23:07:05.129Z,1.10
2019-03-08T23:09:32.828Z,1.43
2019-03-08T23:12:00.596Z,1.43
2019-03-08T23:14:28.266Z,1.40
2019-03-08T23:16:55.946Z,1.43
2019-03-08T23:19:23.973Z,1.47
2019-03-08T23:21:51.527Z,2.10
2019-03-08T23:24:19.335Z,1.70
2019-03-08T23:27:05.329Z,2.07
2019-03-08T23:29:43.052Z,2.37
2019-03-08T23:32:17.992Z,1.53
2019-03-08T23:34:45.687Z,1.30
2019-03-08T23:37:14.008Z,1.33
2019-03-08T23:39:42.101Z,1.90
2019-03-08T23:42:09.551Z,1.30
2019-03-08T23:44:37.079Z,1.50
2019-03-08T23:47:04.643Z,1.37
2019-03-08T23:49:32.849Z,1.87
2019-03-08T23:52:00.574Z,1.50
2019-03-08T23:54:28.813Z,1.47
2019-03-08T23:56:56.793Z,2.60
2019-03-08T23:59:24.368Z,2.73
